Time;durP1;ratioP1;P1;durP2;ratioP2;P2;SDS_P1;SDS_P2;PMS_P1;PMS_P2;Temp;Humidity;BMP_temperature;BMP_pressure;BME280_temperature;BME280_humidity;BME280_pressure;Samples;Min_cycle;Max_cycle;Signal;HPM_P1;HPM_P2
2022/09/28 00:00:59;;;;;;;2.22;1.15;;;;;;;10.52;49.15;99170.41;5037902;28;20556;-80
2022/09/28 00:03:28;;;;;;;1.63;1.05;;;;;;;10.51;48.91;99174.16;5036395;28;20096;-79
2022/09/28 00:06:02;;;;;;;2.63;1.10;;;;;;;10.56;49.06;99179.16;5037767;28;20048;-79
2022/09/28 00:08:31;;;;;;;2.05;1.10;;;;;;;10.54;49.13;99183.94;5041101;28;20414;-80
2022/09/28 00:10:59;;;;;;;2.15;1.10;;;;;;;10.53;48.93;99188.56;5041085;28;20522;-80
2022/09/28 00:13:28;;;;;;;2.38;1.25;;;;;;;10.51;48.57;99176.91;5029239;28;20063;-80
2022/09/28 00:16:01;;;;;;;1.73;0.90;;;;;;;10.52;48.66;99175.88;5052292;28;20047;-80
2022/09/28 00:18:29;;;;;;;1.52;0.93;;;;;;;10.50;48.97;99180.66;5032412;28;20052;-80
2022/09/28 00:21:03;;;;;;;1.17;0.80;;;;;;;10.53;48.47;99180.34;5032750;28;20069;-79
2022/09/28 00:23:32;;;;;;;1.92;1.23;;;;;;;10.51;48.40;99176.03;5034656;28;20111;-80
2022/09/28 00:26:04;;;;;;;3.05;1.15;;;;;;;10.50;48.68;99175.19;5047169;28;20574;-80
2022/09/28 00:28:32;;;;;;;1.92;1.05;;;;;;;10.45;48.65;99174.88;5037498;28;20068;-80
2022/09/28 00:31:00;;;;;;;1.60;0.95;;;;;;;10.47;48.49;99171.97;5033595;28;20033;-78
2022/09/28 00:33:28;;;;;;;1.48;0.90;;;;;;;10.47;48.56;99169.22;5029646;28;20034;-79
2022/09/28 00:35:56;;;;;;;1.58;0.90;;;;;;;10.46;48.85;99162.91;5041953;28;20049;-80
2022/09/28 00:38:27;;;;;;;1.90;0.90;;;;;;;10.46;49.00;99160.16;5045716;28;20051;-80
2022/09/28 00:40:58;;;;;;;2.33;1.27;;;;;;;10.45;48.38;99166.66;5040393;28;20046;-80
2022/09/28 00:43:26;;;;;;;1.20;0.80;;;;;;;10.43;48.47;99157.78;5062267;28;20072;-81
2022/09/28 00:45:59;;;;;;;2.05;0.90;;;;;;;10.44;48.59;99154.00;5037777;28;20063;-81
2022/09/28 00:48:32;;;;;;;1.83;0.98;;;;;;;10.42;48.91;99153.31;5047099;28;20151;-81
2022/09/28 00:51:02;;;;;;;;;;;;;;;10.16;49.35;99142.59;5036002;28;20049;-80
2022/09/28 00:53:34;;;;;;;2.00;1.00;;;;;;;10.38;48.62;99151.13;5046221;28;20306;-80
2022/09/28 00:56:07;;;;;;;1.90;1.40;;;;;;;10.39;48.68;99145.50;5033884;28;20421;-81
2022/09/28 00:58:39;;;;;;;3.20;1.42;;;;;;;10.39;48.33;99144.63;5055436;28;20037;-80
2022/09/28 01:01:07;;;;;;;2.40;1.40;;;;;;;10.38;48.63;99137.47;5031405;28;20407;-80
2022/09/28 01:03:37;;;;;;;2.70;1.52;;;;;;;10.38;48.33;99140.19;5057851;28;20044;-80
2022/09/28 01:06:07;;;;;;;3.67;1.58;;;;;;;10.36;48.20;99144.97;5034983;28;20048;-80
2022/09/28 01:08:36;;;;;;;2.72;1.70;;;;;;;10.34;48.43;99139.69;5040729;28;20046;-79
2022/09/28 01:11:06;;;;;;;2.90;1.58;;;;;;;10.33;48.42;99140.69;5050503;28;20388;-80
2022/09/28 01:13:34;;;;;;;3.00;1.70;;;;;;;10.29;48.32;99144.81;5031388;28;20041;-80
2022/09/28 01:16:10;;;;;;;3.47;1.85;;;;;;;10.31;48.58;99139.19;5062611;28;20047;-80
2022/09/28 01:18:47;;;;;;;2.47;1.52;;;;;;;10.28;48.33;99145.84;5041948;28;20122;-79
2022/09/28 01:21:18;;;;;;;3.55;1.98;;;;;;;10.26;48.62;99149.78;5041072;28;20080;-81
2022/09/28 01:24:28;;;;;;;2.83;1.77;;;;;;;10.22;49.01;99144.69;5040739;28;20527;-81
2022/09/28 01:27:05;;;;;;;3.58;2.15;;;;;;;10.22;48.98;99143.81;5042652;28;20050;-79
2022/09/28 01:29:43;;;;;;;2.95;2.00;;;;;;;10.21;48.79;99148.44;5036483;28;20053;-80
2022/09/28 01:32:18;;;;;;;3.15;2.00;;;;;;;10.21;48.68;99147.56;5037741;28;20040;-78
2022/09/28 01:34:56;;;;;;;2.92;1.90;;;;;;;10.19;49.01;99150.47;5046468;28;20228;-79
2022/09/28 01:37:30;;;;;;;3.17;2.08;;;;;;;10.17;48.94;99152.53;5023232;28;20059;-80
2022/09/28 01:40:01;;;;;;;3.60;2.15;;;;;;;10.15;48.54;99151.84;5035249;28;20136;-79
2022/09/28 01:42:34;;;;;;;3.38;1.92;;;;;;;10.15;48.67;99140.06;5047937;28;20041;-79
2022/09/28 01:45:09;;;;;;;3.72;2.28;;;;;;;10.13;48.69;99148.44;5040975;28;20049;-81
2022/09/28 01:47:39;;;;;;;3.83;2.08;;;;;;;10.14;48.52;99152.03;5045481;28;20345;-80
2022/09/28 01:50:12;;;;;;;4.07;2.40;;;;;;;10.12;48.64;99134.94;5035725;28;20056;-80
2022/09/28 01:52:49;;;;;;;4.20;2.30;;;;;;;10.11;48.74;99136.81;5034337;28;20076;-80
2022/09/28 01:55:23;;;;;;;4.18;2.83;;;;;;;10.11;48.59;99135.97;5033746;28;20392;-80
2022/09/28 01:58:00;;;;;;;4.00;2.17;;;;;;;10.12;48.79;99134.94;5039584;28;20499;-81
2022/09/28 02:00:29;;;;;;;4.07;2.40;;;;;;;10.08;48.69;99131.69;5045902;28;20716;-80
2022/09/28 02:03:03;;;;;;;4.35;2.33;;;;;;;10.09;48.75;99129.81;5032280;28;20357;-81
2022/09/28 02:05:49;;;;;;;3.40;2.28;;;;;;;10.08;48.84;99128.09;5034225;28;20048;-79
2022/09/28 02:08:24;;;;;;;4.45;2.65;;;;;;;10.07;49.14;99129.16;5039343;28;20064;-80
2022/09/28 02:10:57;;;;;;;4.63;2.47;;;;;;;10.06;49.11;99135.66;5027550;28;20258;-79
2022/09/28 02:13:31;;;;;;;3.45;2.28;;;;;;;10.07;48.98;99131.88;5044663;28;20045;-80
2022/09/28 02:16:05;;;;;;;4.03;2.60;;;;;;;10.06;49.39;99125.56;5038221;28;20033;-81
2022/09/28 02:18:34;;;;;;;3.38;2.47;;;;;;;10.05;48.81;99133.94;5058072;28;20484;-82
2022/09/28 02:21:08;;;;;;;3.95;2.38;;;;;;;10.07;49.16;99126.41;5056712;28;20529;-81
2022/09/28 02:23:39;;;;;;;4.15;2.40;;;;;;;10.04;48.95;99133.06;5036498;28;20099;-81
2022/09/28 02:26:12;;;;;;;3.25;2.28;;;;;;;10.05;48.90;99133.94;5040278;28;20037;-81
2022/09/28 02:28:41;;;;;;;3.72;2.42;;;;;;;10.04;48.74;99124.88;5035567;28;20072;-80
2022/09/28 02:31:09;;;;;;;3.63;2.38;;;;;;;10.03;49.10;99133.25;5034294;28;20052;-81
2022/09/28 02:33:42;;;;;;;3.35;2.20;;;;;;;10.04;49.23;99133.06;5035457;28;20044;-82
2022/09/28 02:36:11;;;;;;;3.58;2.42;;;;;;;10.02;49.06;99137.00;5045705;28;20044;-80
2022/09/28 02:38:39;;;;;;;4.18;2.33;;;;;;;10.01;48.52;99140.75;5051469;28;20127;-81
2022/09/28 02:41:18;;;;;;;4.60;2.30;;;;;;;10.04;49.11;99140.44;5032972;28;20136;-80
2022/09/28 02:43:57;;;;;;;3.55;2.38;;;;;;;10.02;48.85;99142.47;5038771;28;20084;-80
2022/09/28 02:46:32;;;;;;;3.67;2.28;;;;;;;10.02;48.70;99137.00;5024389;28;20064;-80
2022/09/28 02:49:22;;;;;;;4.22;2.55;;;;;;;9.99;48.99;99132.72;5045536;28;20053;-81
2022/09/28 02:52:13;;;;;;;4.60;2.40;;;;;;;9.99;49.37;99138.19;5039585;28;20051;-81
2022/09/28 02:55:04;;;;;;;5.63;2.80;;;;;;;10.00;49.02;99136.31;5041197;28;20315;-80
2022/09/28 02:57:42;;;;;;;4.13;2.55;;;;;;;9.99;49.43;99142.84;5042926;28;20041;-81
2022/09/28 03:00:17;;;;;;;4.03;2.90;;;;;;;9.99;49.35;99140.09;5027956;28;20047;-81
2022/09/28 03:02:59;;;;;;;4.18;2.65;;;;;;;9.99;49.19;99143.66;5023815;28;20053;-81
2022/09/28 03:05:36;;;;;;;5.00;3.03;;;;;;;9.99;49.15;99131.91;5028375;28;20120;-81
2022/09/28 03:08:11;;;;;;;3.90;2.80;;;;;;;9.99;49.31;99130.00;5031126;28;20048;-81
2022/09/28 03:10:43;;;;;;;5.10;2.80;;;;;;;9.98;48.96;99130.19;5057337;28;20507;-81
2022/09/28 03:13:13;;;;;;;4.70;3.13;;;;;;;9.97;49.38;99133.94;5031424;28;20040;-81
2022/09/28 03:15:43;;;;;;;4.75;3.28;;;;;;;10.00;49.14;99133.56;5055433;28;20049;-81
2022/09/28 03:18:16;;;;;;;4.63;3.00;;;;;;;9.97;49.28;99133.94;5032471;28;20049;-80
2022/09/28 03:20:44;;;;;;;4.30;3.33;;;;;;;9.98;49.50;99143.84;5055283;28;20462;-81
2022/09/28 03:23:12;;;;;;;5.53;3.47;;;;;;;9.98;49.29;99138.38;5040611;28;20098;-81
2022/09/28 03:25:51;;;;;;;4.90;3.20;;;;;;;9.99;48.92;99148.28;5038527;28;20519;-82
2022/09/28 03:28:20;;;;;;;5.50;3.58;;;;;;;10.00;49.25;99152.72;5030879;28;20033;-81
2022/09/28 03:30:49;;;;;;;4.78;3.42;;;;;;;10.01;49.47;99152.53;5035034;28;20056;-80
2022/09/28 03:33:18;;;;;;;5.20;3.60;;;;;;;9.99;49.61;99143.66;5034790;28;20051;-80
2022/09/28 03:35:47;;;;;;;6.15;3.67;;;;;;;10.01;49.47;99151.69;5053610;28;20059;-81
2022/09/28 03:38:17;;;;;;;5.60;3.90;;;;;;;10.01;49.59;99149.81;5039314;28;20531;-79
2022/09/28 03:40:52;;;;;;;6.57;4.00;;;;;;;10.03;49.59;99150.50;5034249;28;20041;-81
2022/09/28 03:43:20;;;;;;;6.78;4.25;;;;;;;10.00;49.30;99145.38;5045596;28;20065;-81
2022/09/28 03:45:54;;;;;;;5.80;4.20;;;;;;;10.02;49.49;99143.31;5029105;28;20155;-80
2022/09/28 03:48:24;;;;;;;5.82;4.28;;;;;;;10.01;49.24;99154.41;5043784;28;20476;-81
2022/09/28 03:50:59;;;;;;;6.55;4.75;;;;;;;10.00;49.32;99149.97;5039299;28;20045;-81
2022/09/28 03:53:28;;;;;;;6.32;4.60;;;;;;;9.99;49.16;99148.28;5061255;28;20037;-81
2022/09/28 03:56:02;;;;;;;6.43;4.70;;;;;;;10.00;49.84;99141.78;5037936;28;20120;-80
2022/09/28 03:58:31;;;;;;;7.47;4.60;;;;;;;9.99;49.61;99153.75;5044649;28;20041;-80
2022/09/28 04:01:03;;;;;;;6.32;4.60;;;;;;;10.01;49.41;99148.97;5038604;28;20309;-80
2022/09/28 04:03:32;;;;;;;7.13;4.80;;;;;;;9.96;49.72;99146.75;5044427;28;20055;-80
2022/09/28 04:06:00;;;;;;;7.15;4.75;;;;;;;9.99;49.47;99145.56;5037775;28;20036;-80
2022/09/28 04:08:28;;;;;;;7.75;5.13;;;;;;;9.98;49.47;99138.38;5041548;28;20140;-79
2022/09/28 04:10:57;;;;;;;7.47;5.10;;;;;;;9.99;49.47;99146.38;5051231;28;20067;-79
2022/09/28 04:13:25;;;;;;;6.90;5.10;;;;;;;9.97;49.46;99145.72;5045321;28;20041;-81
2022/09/28 04:15:55;;;;;;;7.03;5.32;;;;;;;9.99;49.67;99145.56;5042108;28;20045;-81
2022/09/28 04:18:25;;;;;;;6.40;4.85;;;;;;;9.98;49.06;99149.31;5052561;28;20140;-81
2022/09/28 04:21:16;;;;;;;7.30;5.00;;;;;;;9.96;49.51;99148.63;5034098;28;20061;-80
2022/09/28 04:23:47;;;;;;;7.05;5.60;;;;;;;9.97;49.60;99139.41;5051290;28;20135;-81
2022/09/28 04:26:17;;;;;;;9.73;6.35;;;;;;;9.97;49.55;99148.47;5040418;28;20566;-81
2022/09/28 04:31:38;;;;;;;8.10;5.85;;;;;;;9.96;49.78;99140.44;5043588;28;20435;-81
2022/09/28 04:34:08;;;;;;;8.18;5.95;;;;;;;9.94;49.52;99147.94;5065992;28;20388;-81
2022/09/28 04:36:36;;;;;;;9.32;6.63;;;;;;;9.95;49.71;99149.66;5048823;28;20044;-80
2022/09/28 04:39:04;;;;;;;9.57;6.78;;;;;;;9.96;49.51;99154.09;5047909;28;20041;-81
2022/09/28 04:41:32;;;;;;;8.77;6.88;;;;;;;9.95;49.38;99150.50;5029050;28;20072;-81
2022/09/28 04:44:01;;;;;;;10.38;6.68;;;;;;;9.96;49.57;99154.09;5037029;28;20164;-81
2022/09/28 04:46:29;;;;;;;9.70;7.07;;;;;;;9.96;49.76;99151.38;5036052;28;20053;-80
2022/09/28 04:49:17;;;;;;;9.02;6.85;;;;;;;9.96;49.86;99144.03;5055745;28;20414;-80
2022/09/28 04:51:53;;;;;;;9.95;6.63;;;;;;;9.94;49.78;99137.88;5048548;28;20047;-80
2022/09/28 04:54:21;;;;;;;9.00;6.43;;;;;;;9.95;49.44;99145.03;5041639;28;20047;-80
2022/09/28 04:56:50;;;;;;;9.25;6.50;;;;;;;9.96;49.80;99148.63;5033436;28;20064;-80
2022/09/28 04:59:17;;;;;;;9.07;6.15;;;;;;;9.96;49.70;99144.03;5055633;28;20047;-80
2022/09/28 05:01:46;;;;;;;8.95;6.45;;;;;;;9.96;49.33;99143.16;5032075;28;20511;-80
2022/09/28 05:04:52;;;;;;;8.00;5.55;;;;;;;9.95;49.53;99147.78;5021869;28;20051;-80
2022/09/28 05:07:46;;;;;;;7.40;5.50;;;;;;;9.95;49.85;99146.91;5030273;28;20064;-81
2022/09/28 05:10:14;;;;;;;8.55;6.03;;;;;;;9.97;49.85;99142.16;5052527;28;20048;-80
2022/09/28 05:12:42;;;;;;;8.70;5.65;;;;;;;9.97;49.58;99145.72;5039150;28;20127;-80
2022/09/28 05:15:11;;;;;;;7.63;5.60;;;;;;;9.98;49.69;99147.44;5055505;28;20071;-81
2022/09/28 05:17:39;;;;;;;8.05;6.00;;;;;;;9.97;49.83;99139.41;5032081;28;20057;-80
2022/09/28 05:20:21;;;;;;;8.40;6.18;;;;;;;9.98;49.28;99149.31;5024257;28;20048;-80
2022/09/28 05:22:49;;;;;;;8.40;5.65;;;;;;;9.97;49.48;99148.47;5024515;28;20595;-81
2022/09/28 05:25:17;;;;;;;8.38;5.47;;;;;;;9.97;49.44;99144.88;5035318;28;20040;-81
2022/09/28 05:27:55;;;;;;;8.07;5.38;;;;;;;9.97;49.58;99150.34;5032722;28;20298;-80
2022/09/28 05:30:37;;;;;;;7.93;5.60;;;;;;;9.96;49.52;99154.09;5044502;28;20044;-81
2022/09/28 05:33:29;;;;;;;8.48;5.10;;;;;;;9.97;49.58;99158.53;5037208;28;20048;-82
2022/09/28 05:36:10;;;;;;;6.43;4.97;;;;;;;9.96;49.44;99151.38;5057881;28;20060;-82
2022/09/28 05:38:38;;;;;;;8.18;5.07;;;;;;;9.95;49.40;99155.13;5060437;28;20043;-82
2022/09/28 05:41:06;;;;;;;7.68;5.20;;;;;;;9.94;49.34;99151.53;5037946;28;20571;-82
2022/09/28 05:43:35;;;;;;;6.75;4.97;;;;;;;9.94;49.20;99153.41;5034866;28;20059;-81
2022/09/28 05:46:04;;;;;;;6.28;4.80;;;;;;;9.92;49.65;99156.31;5034688;28;20037;-82
2022/09/28 05:48:35;;;;;;;6.30;4.82;;;;;;;9.93;49.59;99158.03;5027469;28;20092;-81
2022/09/28 05:51:03;;;;;;;6.38;4.22;;;;;;;9.93;49.30;99160.75;5037090;28;20076;-81
2022/09/28 05:53:32;;;;;;;6.63;4.85;;;;;;;9.93;49.09;99158.03;5034138;28;20056;-81
2022/09/28 05:56:00;;;;;;;6.40;4.63;;;;;;;9.92;49.59;99169.13;5041728;28;20588;-82
2022/09/28 05:58:31;;;;;;;6.15;4.47;;;;;;;9.91;49.50;99164.66;5028427;28;20045;-81
2022/09/28 06:00:59;;;;;;;6.25;4.30;;;;;;;9.91;49.38;99168.25;5034774;28;20053;-81
2022/09/28 06:03:27;;;;;;;6.45;4.50;;;;;;;9.90;49.05;99165.72;5041442;28;20044;-82
2022/09/28 06:05:55;;;;;;;5.78;4.22;;;;;;;9.91;49.12;99175.59;5037543;28;20068;-81
2022/09/28 06:08:24;;;;;;;6.68;4.05;;;;;;;9.89;49.06;99170.34;5044544;28;20504;-81
2022/09/28 06:11:02;;;;;;;6.40;4.72;;;;;;;9.90;49.17;99177.50;5027326;28;20053;-81
2022/09/28 06:13:30;;;;;;;6.45;4.25;;;;;;;9.89;49.42;99181.25;5036304;28;20045;-81
2022/09/28 06:15:58;;;;;;;5.88;4.30;;;;;;;9.88;49.58;99173.22;5012765;28;20037;-81
2022/09/28 06:18:26;;;;;;;5.70;3.92;;;;;;;9.90;49.42;99179.38;5033585;28;20048;-80
2022/09/28 06:21:24;;;;;;;5.53;3.75;;;;;;;9.87;49.44;99177.84;5028002;28;20029;-80
2022/09/28 06:23:51;;;;;;;5.20;3.60;;;;;;;9.88;48.92;99175.97;5048859;28;20056;-81
2022/09/28 06:26:21;;;;;;;6.30;4.13;;;;;;;9.89;49.60;99178.53;5033896;28;20040;-81
2022/09/28 06:28:49;;;;;;;4.93;3.72;;;;;;;9.88;49.43;99181.44;5035399;28;20487;-80
2022/09/28 06:31:18;;;;;;;6.28;3.63;;;;;;;9.88;49.29;99182.28;5041848;28;20047;-80
2022/09/28 06:33:49;;;;;;;5.80;3.53;;;;;;;9.88;49.12;99184.16;5033786;28;20045;-80
2022/09/28 06:36:19;;;;;;;6.20;3.70;;;;;;;9.85;49.60;99188.94;5044969;28;20033;-82
2022/09/28 06:38:49;;;;;;;5.85;3.85;;;;;;;9.87;49.31;99191.50;5028852;28;20588;-82
2022/09/28 06:41:17;;;;;;;5.88;3.58;;;;;;;9.87;49.51;99196.09;5022931;28;20105;-82
2022/09/28 06:43:47;;;;;;;4.90;3.45;;;;;;;9.90;49.76;99207.56;5033441;28;21184;-82
2022/09/28 06:46:34;;;;;;;5.43;3.72;;;;;;;9.87;49.66;99204.31;5045847;28;20597;-80
2022/09/28 06:49:11;;;;;;;6.63;3.92;;;;;;;9.89;49.46;99205.84;5046883;28;20102;-83
2022/09/28 06:52:04;;;;;;;5.80;3.50;;;;;;;9.89;49.63;99213.19;5057033;28;20110;-81
2022/09/28 06:54:55;;;;;;;5.47;3.20;;;;;;;9.89;49.91;99218.66;5037299;28;20109;-81
2022/09/28 06:57:31;;;;;;;5.40;3.50;;;;;;;9.92;49.50;99216.44;5032092;28;20057;-80
2022/09/28 07:00:04;;;;;;;5.28;3.38;;;;;;;9.95;49.46;99220.72;5036152;28;20037;-80
2022/09/28 07:02:32;;;;;;;4.80;3.40;;;;;;;9.94;49.43;99227.19;5039387;28;20041;-80
2022/09/28 07:05:13;;;;;;;4.70;3.03;;;;;;;9.98;49.44;99223.09;5037595;28;20041;-80
2022/09/28 07:07:55;;;;;;;5.20;2.90;;;;;;;9.96;49.56;99236.09;5046920;28;20041;-80
2022/09/28 07:10:49;;;;;;;4.50;3.00;;;;;;;9.95;49.35;99235.22;5071897;28;20048;-81
2022/09/28 07:13:29;;;;;;;4.70;2.75;;;;;;;9.98;49.76;99239.50;5063639;28;20040;-82
2022/09/28 07:16:20;;;;;;;5.78;3.13;;;;;;;10.00;49.33;99235.56;5051766;28;20052;-82
2022/09/28 07:18:55;;;;;;;4.28;2.97;;;;;;;9.98;49.24;99237.63;5072903;28;20041;-82
2022/09/28 07:21:23;;;;;;;4.65;2.92;;;;;;;10.02;49.42;99247.19;5048285;28;20503;-83
2022/09/28 07:23:58;;;;;;;4.60;2.80;;;;;;;10.02;49.63;99254.53;5074730;28;20378;-82
2022/09/28 07:26:45;;;;;;;4.53;2.72;;;;;;;10.02;49.29;99241.72;5045304;28;20549;-83
2022/09/28 07:29:29;;;;;;;4.25;2.83;;;;;;;10.02;49.24;99243.59;5034794;28;20132;-83
2022/09/28 07:32:19;;;;;;;5.00;2.75;;;;;;;10.05;49.25;99248.72;5068889;28;20048;-81
2022/09/28 07:35:14;;;;;;;3.95;2.88;;;;;;;10.04;49.54;99252.47;5072666;28;20092;-81
2022/09/28 07:37:47;;;;;;;4.88;2.65;;;;;;;10.05;49.43;99254.19;5032261;28;20446;-80
2022/09/28 07:43:04;;;;;;;5.32;3.10;;;;;;;10.06;49.81;99255.91;5042479;28;20048;-82
2022/09/28 07:45:34;;;;;;;4.07;2.72;;;;;;;10.08;49.78;99265.63;5031886;28;20040;-81
2022/09/28 07:48:04;;;;;;;4.47;2.88;;;;;;;10.11;49.54;99262.56;5029641;28;20045;-82
2022/09/28 07:51:05;;;;;;;4.20;2.80;;;;;;;10.11;49.69;99270.75;5044497;28;20044;-82
2022/09/28 07:53:46;;;;;;;5.03;2.60;;;;;;;10.14;49.95;99264.13;5046461;28;20048;-83
2022/09/28 07:56:27;;;;;;;4.47;2.97;;;;;;;10.18;50.07;99265.47;5050914;28;20049;-83
2022/09/28 07:59:19;;;;;;;4.28;2.80;;;;;;;10.21;50.02;99279.66;5055051;28;20495;-83
2022/09/28 08:02:05;;;;;;;5.50;2.78;;;;;;;10.25;49.84;99280.16;5072215;28;20078;-82
2022/09/28 08:04:35;;;;;;;4.55;3.00;;;;;;;10.31;49.73;99274.03;5040232;28;20045;-82
2022/09/28 08:07:09;;;;;;;4.65;2.70;;;;;;;10.35;49.74;99275.38;5036900;28;20100;-81
2022/09/28 08:09:37;;;;;;;4.70;2.80;;;;;;;10.37;50.18;99275.22;5029011;28;20044;-81
2022/09/28 08:12:30;;;;;;;5.35;2.70;;;;;;;10.41;49.60;99279.28;5065244;28;20313;-81
2022/09/28 08:15:19;;;;;;;5.38;3.00;;;;;;;10.46;49.79;99285.13;5046853;28;20057;-81
2022/09/28 08:18:07;;;;;;;4.25;2.75;;;;;;;10.49;50.00;99291.09;5050463;28;20042;-80
2022/09/28 08:23:22;;;;;;;4.53;2.58;;;;;;;10.55;49.65;99282.25;5027696;28;20049;-82
2022/09/28 08:25:52;;;;;;;4.47;2.65;;;;;;;10.60;49.23;99298.13;5035072;28;20040;-82
2022/09/28 08:28:22;;;;;;;5.45;3.10;;;;;;;10.63;49.41;99296.94;5040855;28;20053;-81
2022/09/28 08:30:54;;;;;;;4.05;2.63;;;;;;;10.62;49.29;99297.97;5047052;28;20043;-81
2022/09/28 08:33:31;;;;;;;4.15;2.55;;;;;;;10.63;49.20;99300.53;5073270;28;20072;-82
2022/09/28 08:36:35;;;;;;;3.22;2.20;;;;;;;10.62;49.03;99303.44;5029921;28;20525;-83
2022/09/28 08:39:22;;;;;;;5.25;2.60;;;;;;;10.62;49.20;99309.75;5058018;28;20059;-81
2022/09/28 08:42:30;;;;;;;5.80;2.70;;;;;;;10.66;48.99;99311.13;5066497;28;20511;-82
2022/09/28 08:45:37;;;;;;;4.47;2.40;;;;;;;10.58;49.31;99305.66;4977023;28;20042;-81
2022/09/28 08:48:46;;;;;;;3.80;2.53;;;;;;;10.64;48.68;99306.88;4991317;28;20054;-82
2022/09/28 08:51:54;;;;;;;4.10;2.33;;;;;;;10.62;49.10;99315.25;5043076;28;20406;-82
2022/09/28 08:54:39;;;;;;;3.95;2.47;;;;;;;10.64;48.94;99315.94;5026736;28;20061;-81
2022/09/28 08:57:17;;;;;;;3.65;2.70;;;;;;;10.63;49.00;99316.94;5054037;28;20071;-82
2022/09/28 08:59:51;;;;;;;4.72;2.95;;;;;;;10.67;48.82;99331.13;5057440;28;20495;-82
2022/09/28 09:02:32;;;;;;;4.53;2.45;;;;;;;10.65;48.86;99325.00;5055406;28;20041;-82
2022/09/28 09:05:17;;;;;;;3.97;2.90;;;;;;;10.66;48.91;99329.41;5037152;28;20294;-82
2022/09/28 09:08:24;;;;;;;5.30;2.58;;;;;;;10.67;49.11;99329.25;5062764;28;20045;-83
2022/09/28 09:11:00;;;;;;;5.93;2.63;;;;;;;10.68;48.99;99336.44;5040499;28;20084;-81
2022/09/28 09:13:45;;;;;;;4.80;2.58;;;;;;;10.71;48.61;99337.97;5061398;28;20530;-81
2022/09/28 09:16:30;;;;;;;4.38;2.63;;;;;;;10.71;48.65;99336.09;5050653;28;20072;-82
2022/09/28 09:19:34;;;;;;;3.80;2.42;;;;;;;10.70;48.97;99342.59;5037029;28;20073;-82
2022/09/28 09:22:26;;;;;;;4.68;2.42;;;;;;;10.71;48.80;99338.84;5027224;28;20107;-82
2022/09/28 09:25:03;;;;;;;5.80;2.70;;;;;;;10.74;49.01;99343.94;5069023;28;20121;-82
2022/09/28 09:27:47;;;;;;;4.07;2.55;;;;;;;10.76;48.92;99341.88;5046717;28;20102;-82
2022/09/28 09:30:17;;;;;;;3.40;2.30;;;;;;;10.76;49.18;99338.31;5057100;28;20052;-82
2022/09/28 09:33:06;;;;;;;3.28;2.08;;;;;;;10.77;49.10;99340.88;5026889;28;20052;-81
2022/09/28 09:36:01;;;;;;;4.15;2.13;;;;;;;10.78;49.18;99339.00;5035016;28;20048;-81
2022/09/28 09:38:58;;;;;;;4.00;1.75;;;;;;;10.81;49.23;99335.91;5051873;28;20052;-81
2022/09/28 09:42:00;;;;;;;4.07;1.83;;;;;;;10.83;49.17;99340.16;5046180;28;20071;-83
2022/09/28 09:44:51;;;;;;;3.60;1.67;;;;;;;10.87;48.60;99348.91;5066851;28;20059;-82
2022/09/28 09:47:52;;;;;;;3.83;1.70;;;;;;;10.89;48.84;99355.94;5023517;28;20140;-82
2022/09/28 09:50:28;;;;;;;3.50;1.50;;;;;;;10.95;48.89;99354.38;5060544;28;20512;-82
2022/09/28 09:53:02;;;;;;;4.45;1.42;;;;;;;10.98;48.87;99356.72;5045952;28;20424;-81
2022/09/28 09:55:34;;;;;;;3.53;1.70;;;;;;;10.99;48.90;99347.50;5045504;28;20049;-81
2022/09/28 09:58:29;;;;;;;2.28;1.20;;;;;;;11.05;48.04;99352.31;5038249;28;20048;-82
2022/09/28 10:01:17;;;;;;;2.70;1.08;;;;;;;11.07;48.57;99347.47;5042068;28;20052;-82
2022/09/28 10:04:18;;;;;;;2.65;1.17;;;;;;;11.10;47.81;99346.28;5034071;28;20064;-82
2022/09/28 10:06:49;;;;;;;2.00;1.10;;;;;;;11.12;48.19;99355.19;5076041;28;20044;-82
2022/09/28 10:09:23;;;;;;;2.42;1.27;;;;;;;11.16;48.08;99351.91;5063870;28;20044;-83
2022/09/28 10:11:52;;;;;;;1.75;1.10;;;;;;;11.16;48.24;99351.91;5041175;28;20491;-82
2022/09/28 10:14:23;;;;;;;1.45;1.00;;;;;;;11.21;48.20;99348.66;5048681;28;20504;-82
2022/09/28 10:17:04;;;;;;;2.05;1.15;;;;;;;11.21;48.28;99346.78;5043484;28;20038;-83
2022/09/28 10:19:51;;;;;;;2.63;1.20;;;;;;;11.21;48.30;99343.19;5066327;28;20363;-82
2022/09/28 10:22:42;;;;;;;1.80;0.90;;;;;;;11.26;47.75;99343.50;5048372;28;20045;-80
2022/09/28 10:25:14;;;;;;;3.03;1.02;;;;;;;11.30;48.22;99353.09;5076552;28;20048;-82
2022/09/28 10:27:45;;;;;;;2.70;1.05;;;;;;;11.33;47.90;99353.59;5055013;28;20049;-82
2022/09/28 10:30:22;;;;;;;4.25;1.30;;;;;;;11.39;48.10;99343.78;5036221;28;20503;-81
2022/09/28 10:32:52;;;;;;;2.97;1.25;;;;;;;11.42;47.70;99350.81;5051637;28;20099;-82
2022/09/28 10:35:23;;;;;;;1.95;1.25;;;;;;;11.47;47.80;99351.16;5046756;28;20518;-80
2022/09/28 10:38:03;;;;;;;1.90;1.00;;;;;;;11.50;47.78;99348.03;5051570;28;20037;-82
2022/09/28 10:40:46;;;;;;;1.65;1.00;;;;;;;11.55;48.12;99359.34;5052456;28;20481;-82
2022/09/28 10:43:23;;;;;;;2.80;1.10;;;;;;;11.61;47.84;99355.94;5066014;28;20064;-81
2022/09/28 10:46:06;;;;;;;1.65;1.00;;;;;;;11.66;47.28;99351.59;5028513;28;20535;-82
2022/09/28 10:48:48;;;;;;;1.58;1.10;;;;;;;11.70;46.97;99350.25;5033901;28;20476;-82
2022/09/28 10:51:16;;;;;;;2.30;1.10;;;;;;;11.73;47.35;99349.00;5058626;28;20419;-81
2022/09/28 10:53:59;;;;;;;1.42;0.98;;;;;;;11.80;47.12;99352.72;5057238;28;20473;-82
2022/09/28 10:56:49;;;;;;;2.03;1.20;;;;;;;11.84;47.75;99364.22;5030804;28;20055;-83
2022/09/28 10:59:38;;;;;;;1.92;1.30;;;;;;;11.93;47.04;99363.13;5052205;28;20044;-81
2022/09/28 11:02:32;;;;;;;2.38;1.33;;;;;;;11.95;47.24;99361.06;5031570;28;20057;-81
2022/09/28 11:05:26;;;;;;;2.72;1.42;;;;;;;11.99;47.27;99367.88;5023497;28;20045;-82
2022/09/28 11:07:59;;;;;;;1.55;1.10;;;;;;;12.04;47.43;99363.59;5034298;28;20041;-81
2022/09/28 11:10:34;;;;;;;3.30;1.35;;;;;;;12.06;47.15;99350.53;5056878;28;20056;-82
2022/09/28 11:13:14;;;;;;;1.58;1.20;;;;;;;12.10;46.98;99354.66;5049261;28;20073;-82
2022/09/28 11:15:49;;;;;;;3.33;1.40;;;;;;;12.13;47.05;99356.16;5055588;28;20453;-82
2022/09/28 11:18:31;;;;;;;2.30;1.27;;;;;;;12.19;46.66;99352.69;5041315;28;20103;-82
2022/09/28 11:21:14;;;;;;;1.98;1.23;;;;;;;12.21;46.34;99352.53;5022541;28;20415;-81
2022/09/28 11:24:07;;;;;;;1.58;1.15;;;;;;;12.25;46.84;99351.13;5066774;28;20051;-82
2022/09/28 11:26:42;;;;;;;2.45;1.15;;;;;;;12.27;47.24;99352.66;5042210;28;20056;-81
2022/09/28 11:29:26;;;;;;;1.52;1.20;;;;;;;12.35;46.58;99357.22;5056993;28;20041;-81
2022/09/28 11:32:14;;;;;;;2.20;1.48;;;;;;;12.36;46.99;99353.44;5040739;28;20158;-82
2022/09/28 11:35:23;;;;;;;2.42;1.38;;;;;;;12.43;46.27;99355.28;4997298;28;20121;-81
2022/09/28 11:38:22;;;;;;;1.50;1.10;;;;;;;12.48;45.98;99361.06;5026950;28;20202;-82
2022/09/28 11:41:36;;;;;;;1.85;1.10;;;;;;;12.52;46.24;99358.81;5045863;28;20048;-81
2022/09/28 11:44:21;;;;;;;1.80;1.20;;;;;;;12.57;45.74;99356.34;5061478;28;20049;-81
2022/09/28 11:47:11;;;;;;;3.28;1.13;;;;;;;12.60;45.72;99363.38;5030170;28;20098;-81
2022/09/28 11:49:45;;;;;;;2.65;1.30;;;;;;;12.63;45.64;99357.53;5070915;28;20048;-83
2022/09/28 11:52:22;;;;;;;2.63;1.17;;;;;;;12.67;45.43;99353.41;5048744;28;20040;-82
2022/09/28 11:54:54;;;;;;;2.50;1.25;;;;;;;12.68;45.69;99355.97;5054440;28;20124;-83
2022/09/28 11:57:28;;;;;;;2.35;1.20;;;;;;;12.67;45.63;99357.00;5056247;28;20045;-81
2022/09/28 12:00:00;;;;;;;2.60;1.20;;;;;;;12.70;45.94;99356.66;5052182;28;20072;-83
2022/09/28 12:02:35;;;;;;;2.60;1.50;;;;;;;12.71;45.92;99363.81;5038777;28;20045;-81
2022/09/28 12:05:17;;;;;;;2.40;1.27;;;;;;;12.73;45.93;99358.13;5052408;28;20071;-82
2022/09/28 12:07:54;;;;;;;2.03;1.33;;;;;;;12.73;45.65;99367.22;5050304;28;20041;-81
2022/09/28 12:10:46;;;;;;;2.08;1.30;;;;;;;12.72;45.92;99364.66;5058552;28;20043;-82
2022/09/28 12:13:21;;;;;;;1.92;1.40;;;;;;;12.72;45.67;99368.25;5045789;28;20044;-81
2022/09/28 12:15:54;;;;;;;2.03;1.30;;;;;;;12.70;46.05;99364.88;5040898;28;20066;-81
2022/09/28 12:18:46;;;;;;;;;;;;;;;12.45;46.60;99360.59;5057210;28;20052;-81
2022/09/28 12:21:31;;;;;;;1.90;1.00;;;;;;;12.71;46.19;99357.47;5068145;28;20385;-82
2022/09/28 12:24:07;;;;;;;1.67;1.00;;;;;;;12.75;46.50;99354.19;5070058;28;20048;-82
2022/09/28 12:26:42;;;;;;;2.00;1.17;;;;;;;12.79;46.63;99349.16;5040629;28;20065;-81
2022/09/28 12:29:13;;;;;;;1.58;1.00;;;;;;;12.85;46.68;99351.19;5068208;28;20104;-81
2022/09/28 12:31:56;;;;;;;2.15;1.17;;;;;;;12.88;45.64;99351.66;5048297;28;20060;-81